createdAt,value
2023-03-16T00:01:03.517Z,98584.50
2023-03-16T00:03:30.374Z,98565.66
2023-03-16T00:05:56.963Z,98566.91
2023-03-16T00:08:24.091Z,98571.59
2023-03-16T00:10:54.047Z,98558.97
2023-03-16T00:13:23.802Z,98559.28
2023-03-16T00:15:54.613Z,98562.84
2023-03-16T00:18:21.670Z,98574.91
2023-03-16T00:20:52.217Z,98571.66
2023-03-16T00:23:19.219Z,98569.75
2023-03-16T00:25:45.724Z,98564.00
2023-03-16T00:28:13.960Z,98577.94
2023-03-16T00:30:40.455Z,98571.38
2023-03-16T00:33:07.047Z,98567.22
2023-03-16T00:35:34.869Z,98559.03
2023-03-16T00:38:01.416Z,98565.91
2023-03-16T00:40:28.029Z,98569.66
2023-03-16T00:42:55.081Z,98560.06
2023-03-16T00:45:21.578Z,98562.00
2023-03-16T00:47:48.053Z,98565.25
2023-03-16T00:50:14.544Z,98556.00
2023-03-16T00:52:42.150Z,98563.28
2023-03-16T00:55:08.898Z,98555.88
2023-03-16T00:57:35.443Z,98555.34
2023-03-16T01:00:12.612Z,98560.91
2023-03-16T01:02:39.120Z,98542.78
2023-03-16T01:05:06.044Z,98545.03
2023-03-16T01:07:32.528Z,98562.09
2023-03-16T01:09:59.038Z,98554.47
2023-03-16T01:12:25.512Z,98548.44
2023-03-16T01:14:52.319Z,98542.72
2023-03-16T01:17:18.865Z,98531.53
2023-03-16T01:19:45.729Z,98540.06
2023-03-16T01:22:12.224Z,98546.16
2023-03-16T01:24:38.840Z,98533.22
2023-03-16T01:27:05.434Z,98532.72
2023-03-16T01:29:32.102Z,98528.41
2023-03-16T01:31:58.747Z,98536.66
2023-03-16T01:34:25.271Z,98536.13
2023-03-16T01:36:51.733Z,98535.59
2023-03-16T01:39:18.209Z,98541.66
2023-03-16T01:41:45.159Z,98532.41
2023-03-16T01:44:24.335Z,98538.69
2023-03-16T01:46:50.901Z,98540.28
2023-03-16T01:49:20.563Z,98537.59
2023-03-16T01:51:54.380Z,98534.06
2023-03-16T01:54:21.716Z,98543.00
2023-03-16T01:56:56.190Z,98541.06
2023-03-16T01:59:24.981Z,98542.63
2023-03-16T02:01:51.863Z,98544.53
2023-03-16T02:04:36.984Z,98545.66
2023-03-16T02:07:04.681Z,98547.59
2023-03-16T02:09:32.010Z,98529.91
2023-03-16T02:11:58.480Z,98522.56
2023-03-16T02:14:24.957Z,98520.97
2023-03-16T02:16:52.003Z,98521.00
2023-03-16T02:19:42.199Z,98520.19
2023-03-16T02:22:08.533Z,98514.75
2023-03-16T02:24:36.426Z,98511.50
2023-03-16T02:27:11.174Z,98505.75
2023-03-16T02:30:01.267Z,98498.69
2023-03-16T02:32:27.871Z,98499.75
2023-03-16T02:34:55.440Z,98498.69
2023-03-16T02:37:21.907Z,98485.31
2023-03-16T02:39:48.380Z,98484.22
2023-03-16T02:42:19.509Z,98480.69
2023-03-16T02:44:52.411Z,98476.34
2023-03-16T02:47:45.435Z,98482.84
2023-03-16T02:50:12.396Z,98473.63
2023-03-16T02:52:39.095Z,98474.16
2023-03-16T02:55:06.272Z,98465.44
2023-03-16T02:57:32.806Z,98464.38
2023-03-16T02:59:59.512Z,98467.09
2023-03-16T03:02:26.034Z,98458.63
2023-03-16T03:04:54.459Z,98455.66
2023-03-16T03:07:21.025Z,98461.09
2023-03-16T03:09:47.489Z,98443.66
2023-03-16T03:12:14.056Z,98452.94
2023-03-16T03:14:40.556Z,98443.91
2023-03-16T03:17:07.480Z,98447.22
2023-03-16T03:19:34.547Z,98456.19
2023-03-16T03:22:04.166Z,98453.19
2023-03-16T03:24:31.737Z,98457.28
2023-03-16T03:27:00.627Z,98455.38
2023-03-16T03:29:34.510Z,98448.31
2023-03-16T03:32:04.372Z,98448.31
2023-03-16T03:34:31.611Z,98453.75
2023-03-16T03:36:58.208Z,98459.19
2023-03-16T03:39:24.703Z,98463.28
2023-03-16T03:41:54.593Z,98456.47
2023-03-16T03:44:24.005Z,98454.00
2023-03-16T03:46:51.571Z,98456.72
2023-03-16T03:49:18.461Z,98453.75
2023-03-16T03:51:44.932Z,98465.19
2023-03-16T03:54:13.081Z,98465.19
2023-03-16T03:56:39.569Z,98470.06
2023-03-16T03:59:06.315Z,98467.34
2023-03-16T04:01:32.792Z,98464.66
2023-03-16T04:03:59.307Z,98452.66
2023-03-16T04:06:25.807Z,98451.84
2023-03-16T04:08:54.516Z,98457.53
2023-03-16T04:11:21.302Z,98461.84
2023-03-16T04:13:47.813Z,98467.84
2023-03-16T04:16:16.240Z,98458.78
2023-03-16T04:18:42.788Z,98454.63
2023-03-16T04:21:14.030Z,98451.91
2023-03-16T04:23:40.484Z,98450.00
2023-03-16T04:26:06.953Z,98446.16
2023-03-16T04:28:33.428Z,98440.94
2023-03-16T04:31:05.367Z,98438.19
2023-03-16T04:33:32.401Z,98433.25
2023-03-16T04:35:59.303Z,98439.56
2023-03-16T04:38:25.869Z,98435.72
2023-03-16T04:40:52.324Z,98433.56
2023-03-16T04:43:18.801Z,98442.31
2023-03-16T04:45:45.276Z,98437.09
2023-03-16T04:48:12.024Z,98438.28
2023-03-16T04:50:38.520Z,98434.19
2023-03-16T04:53:04.987Z,98439.38
2023-03-16T04:55:31.584Z,98436.94
2023-03-16T04:57:58.136Z,98449.16
2023-03-16T05:00:24.657Z,98454.59
2023-03-16T05:02:51.850Z,98454.91
2023-03-16T05:05:18.495Z,98451.84
2023-03-16T05:07:45.050Z,98445.09
2023-03-16T05:10:12.433Z,98446.19
2023-03-16T05:12:38.975Z,98443.19
2023-03-16T05:15:06.146Z,98439.03
2023-03-16T05:17:32.731Z,98433.34
2023-03-16T05:19:59.209Z,98434.41
2023-03-16T05:22:25.905Z,98441.00
2023-03-16T05:24:52.394Z,98439.03
2023-03-16T05:27:18.860Z,98445.59
2023-03-16T05:29:46.626Z,98441.75
2023-03-16T05:32:13.444Z,98440.09
2023-03-16T05:34:39.979Z,98437.66
2023-03-16T05:37:06.437Z,98430.03
2023-03-16T05:39:34.568Z,98438.72
2023-03-16T05:42:01.056Z,98440.03
2023-03-16T05:44:27.640Z,98430.81
2023-03-16T05:46:54.208Z,98431.63
2023-03-16T05:49:20.765Z,98437.84
2023-03-16T05:51:47.235Z,98438.94
2023-03-16T05:54:13.923Z,98430.97
2023-03-16T05:56:40.422Z,98433.63
2023-03-16T05:59:06.884Z,98427.78
2023-03-16T06:01:34.137Z,98435.41
2023-03-16T06:04:01.563Z,98421.66
2023-03-16T06:06:28.026Z,98414.50
2023-03-16T06:08:54.533Z,98419.31
2023-03-16T06:11:21.079Z,98411.31
2023-03-16T06:13:47.547Z,98405.56
2023-03-16T06:16:14.561Z,98412.34
2023-03-16T06:18:41.266Z,98409.59
2023-03-16T06:21:07.827Z,98412.00
2023-03-16T06:23:34.299Z,98402.63
2023-03-16T06:26:01.105Z,98394.72
2023-03-16T06:28:27.557Z,98411.28
2023-03-16T06:30:55.182Z,98409.56
2023-03-16T06:33:21.824Z,98407.03
2023-03-16T06:35:48.380Z,98407.56
2023-03-16T06:38:14.916Z,98405.34
2023-03-16T06:40:41.460Z,98398.03
2023-03-16T06:43:08.077Z,98399.38
2023-03-16T06:45:34.560Z,98404.72
2023-03-16T06:48:01.042Z,98401.13
2023-03-16T06:50:28.281Z,98400.53
2023-03-16T06:52:54.852Z,98404.91
2023-03-16T06:55:21.308Z,98403.88
2023-03-16T06:57:47.781Z,98414.50
2023-03-16T07:00:15.512Z,98423.84
2023-03-16T07:02:43.592Z,98416.28
2023-03-16T07:05:13.073Z,98423.59
2023-03-16T07:07:42.530Z,98429.88
2023-03-16T07:10:13.282Z,98420.41
2023-03-16T07:12:40.007Z,98434.81
2023-03-16T07:15:06.722Z,98437.19
2023-03-16T07:17:33.232Z,98434.94
2023-03-16T07:19:59.729Z,98430.56
2023-03-16T07:22:26.370Z,98434.25
2023-03-16T07:24:57.175Z,98439.22
2023-03-16T07:27:24.472Z,98443.41
2023-03-16T07:29:52.012Z,98432.25
2023-03-16T07:32:19.527Z,98447.28
2023-03-16T07:34:45.988Z,98432.47
2023-03-16T07:37:12.484Z,98440.06
2023-03-16T07:39:38.948Z,98436.00
2023-03-16T07:42:05.480Z,98431.47
2023-03-16T07:44:31.939Z,98425.31
2023-03-16T07:46:58.417Z,98425.94
2023-03-16T07:49:24.886Z,98435.88
2023-03-16T07:51:51.493Z,98428.47
2023-03-16T07:54:17.943Z,98427.78
2023-03-16T07:56:49.279Z,98432.69
2023-03-16T07:59:16.207Z,98431.50
2023-03-16T08:01:43.160Z,98417.56
2023-03-16T08:04:12.212Z,98429.78
2023-03-16T08:06:38.807Z,98421.13
2023-03-16T08:09:06.418Z,98422.88
2023-03-16T08:11:32.909Z,98429.47
2023-03-16T08:13:59.376Z,98417.78
2023-03-16T08:16:26.673Z,98431.41
2023-03-16T08:18:56.033Z,98425.22
2023-03-16T08:21:22.593Z,98431.41
2023-03-16T08:23:50.416Z,98429.59
2023-03-16T08:26:19.691Z,98427.31
2023-03-16T08:28:46.623Z,98428.97
2023-03-16T08:31:14.378Z,98436.88
2023-03-16T08:33:42.044Z,98439.94
2023-03-16T08:36:09.713Z,98434.81
2023-03-16T08:38:36.250Z,98448.25
2023-03-16T08:41:02.719Z,98453.53
2023-03-16T08:43:29.189Z,98428.19
2023-03-16T08:45:56.335Z,98438.34
2023-03-16T08:48:23.096Z,98425.97
2023-03-16T08:50:49.560Z,98425.47
2023-03-16T08:53:16.084Z,98426.91
2023-03-16T08:55:42.622Z,98437.47
2023-03-16T08:58:09.503Z,98423.53
2023-03-16T09:00:36.442Z,98439.97
2023-03-16T09:03:02.934Z,98425.03
2023-03-16T09:05:29.429Z,98415.03
2023-03-16T09:07:55.909Z,98417.31
2023-03-16T09:10:23.083Z,98426.44
2023-03-16T09:12:50.226Z,98409.28
2023-03-16T09:15:16.715Z,98416.84
2023-03-16T09:17:44.993Z,98405.22
2023-03-16T09:20:22.263Z,98412.84
2023-03-16T09:22:52.290Z,98394.22
2023-03-16T09:25:19.892Z,98408.06
2023-03-16T09:27:46.737Z,98407.81
2023-03-16T09:30:13.482Z,98401.41
2023-03-16T09:32:40.356Z,98420.41
2023-03-16T09:35:07.176Z,98417.84
2023-03-16T09:37:44.625Z,98416.25
2023-03-16T09:40:22.108Z,98412.06
2023-03-16T09:43:12.757Z,98416.25
2023-03-16T09:45:49.113Z,98419.47
2023-03-16T09:48:16.991Z,98401.81
2023-03-16T09:50:49.208Z,98406.09
2023-03-16T09:53:25.572Z,98408.72
2023-03-16T09:56:06.241Z,98408.59
2023-03-16T09:58:32.957Z,98407.16
2023-03-16T10:01:07.624Z,98407.06
2023-03-16T10:04:00.524Z,98405.59
2023-03-16T10:06:27.080Z,98400.41
2023-03-16T10:09:07.276Z,98404.91
2023-03-16T10:11:38.191Z,98391.34
2023-03-16T10:14:23.960Z,98401.53
2023-03-16T10:16:52.640Z,98398.75
2023-03-16T10:19:51.263Z,98416.69
2023-03-16T10:22:26.547Z,98403.44
2023-03-16T10:24:57.994Z,98404.91
2023-03-16T10:27:28.693Z,98397.78
2023-03-16T10:29:58.461Z,98387.41
2023-03-16T10:32:29.274Z,98395.34
2023-03-16T10:35:02.350Z,98383.84
2023-03-16T10:37:29.896Z,98387.06
2023-03-16T10:39:57.224Z,98387.25
2023-03-16T10:42:24.035Z,98388.53
2023-03-16T10:44:57.044Z,98374.06
2023-03-16T10:47:24.810Z,98381.16
2023-03-16T10:49:51.733Z,98377.44
2023-03-16T10:52:22.197Z,98370.50
2023-03-16T10:55:15.995Z,98359.03
2023-03-16T10:57:43.544Z,98365.84
2023-03-16T11:00:13.301Z,98374.13
2023-03-16T11:02:40.726Z,98374.19
2023-03-16T11:05:15.944Z,98372.28
2023-03-16T11:07:58.162Z,98376.63
2023-03-16T11:10:40.520Z,98354.41
2023-03-16T11:13:19.837Z,98350.63
2023-03-16T11:15:55.823Z,98360.31
2023-03-16T11:18:30.094Z,98339.72
2023-03-16T11:20:58.151Z,98328.91
2023-03-16T11:23:33.060Z,98336.53
2023-03-16T11:26:02.892Z,98331.56
2023-03-16T11:28:35.541Z,98326.47
2023-03-16T11:31:17.060Z,98317.34
2023-03-16T11:33:43.565Z,98315.19
2023-03-16T11:36:55.920Z,98310.97
2023-03-16T11:39:33.864Z,98311.13
2023-03-16T11:42:12.568Z,98309.34
2023-03-16T11:44:59.442Z,98291.44
2023-03-16T11:48:00.281Z,98287.28
2023-03-16T11:50:45.120Z,98289.22
2023-03-16T11:53:20.605Z,98275.91
2023-03-16T11:56:18.016Z,98267.34
2023-03-16T11:59:07.911Z,98277.84
2023-03-16T12:02:08.638Z,98285.69
2023-03-16T12:04:56.608Z,98276.09
2023-03-16T12:07:35.376Z,98279.63
2023-03-16T12:10:02.426Z,98287.88
2023-03-16T12:12:50.981Z,98272.91
2023-03-16T12:15:25.207Z,98273.75
2023-03-16T12:17:57.502Z,98257.38
2023-03-16T12:20:29.452Z,98259.50
2023-03-16T12:22:59.578Z,98239.84
2023-03-16T12:25:29.685Z,98263.75
2023-03-16T12:27:58.311Z,98271.84
2023-03-16T12:30:50.490Z,98263.19
2023-03-16T12:33:35.834Z,98262.22
2023-03-16T12:36:21.147Z,98246.34
2023-03-16T12:38:56.905Z,98225.97
2023-03-16T12:41:46.220Z,98221.16
2023-03-16T12:44:23.883Z,98227.63
2023-03-16T12:47:13.089Z,98226.50
2023-03-16T12:49:40.106Z,98220.59
2023-03-16T12:52:10.089Z,98219.13
2023-03-16T12:54:38.852Z,98206.91
2023-03-16T12:57:08.865Z,98205.84
2023-03-16T12:59:46.571Z,98197.00
2023-03-16T13:02:19.343Z,98200.28
2023-03-16T13:04:49.096Z,98213.81
2023-03-16T13:07:22.672Z,98212.69
2023-03-16T13:10:03.635Z,98179.13
2023-03-16T13:12:32.854Z,98184.25
2023-03-16T13:14:59.364Z,98177.72
2023-03-16T13:17:28.684Z,98179.47
2023-03-16T13:20:47.715Z,98169.81
2023-03-16T13:23:17.078Z,98156.19
2023-03-16T13:26:03.253Z,98151.72
2023-03-16T13:28:32.706Z,98156.56
2023-03-16T13:30:59.230Z,98152.88
2023-03-16T13:33:27.725Z,98158.88
2023-03-16T13:35:56.344Z,98156.50
2023-03-16T13:38:27.646Z,98158.53
2023-03-16T13:41:04.470Z,98161.22
2023-03-16T13:43:32.803Z,98157.06
2023-03-16T13:45:59.624Z,98149.94
2023-03-16T13:48:26.157Z,98150.72
2023-03-16T13:50:53.994Z,98138.03
2023-03-16T13:53:31.398Z,98140.81
2023-03-16T13:55:58.743Z,98122.19
2023-03-16T13:58:35.503Z,98131.88
2023-03-16T14:01:03.504Z,98124.78
2023-03-16T14:03:35.920Z,98103.91
2023-03-16T14:06:03.542Z,98109.69
2023-03-16T14:08:30.027Z,98099.91
2023-03-16T14:10:59.881Z,98115.34
2023-03-16T14:13:32.922Z,98108.94
2023-03-16T14:16:01.457Z,98113.47
2023-03-16T14:18:36.916Z,98103.88
2023-03-16T14:21:27.501Z,98119.97
2023-03-16T14:23:56.889Z,98103.75
2023-03-16T14:26:23.499Z,98106.56
2023-03-16T14:29:08.192Z,98103.44
2023-03-16T14:31:36.486Z,98085.56
2023-03-16T14:34:04.899Z,98101.25
2023-03-16T14:36:36.116Z,98070.66
2023-03-16T14:39:20.201Z,98067.88
2023-03-16T14:41:51.110Z,98079.72
2023-03-16T14:44:22.614Z,98071.91
2023-03-16T14:46:49.117Z,98073.66
2023-03-16T14:49:20.263Z,98067.47
2023-03-16T14:51:47.034Z,98063.91
2023-03-16T14:54:17.501Z,98065.88
2023-03-16T14:56:48.308Z,98054.38
2023-03-16T14:59:14.762Z,98052.09
2023-03-16T15:01:41.282Z,98051.97
2023-03-16T15:04:07.819Z,98043.88
2023-03-16T15:06:34.954Z,98031.91
2023-03-16T15:09:01.670Z,98047.00
2023-03-16T15:11:28.858Z,98029.94
2023-03-16T15:14:04.117Z,98030.41
2023-03-16T15:16:30.938Z,98031.63
2023-03-16T15:18:57.498Z,98030.81
2023-03-16T15:21:29.462Z,98035.47
2023-03-16T15:23:58.650Z,98038.69
2023-03-16T15:26:28.455Z,98036.72
2023-03-16T15:28:55.542Z,98018.28
2023-03-16T15:31:22.373Z,98015.50
2023-03-16T15:33:48.976Z,98004.91
2023-03-16T15:36:17.130Z,97997.19
2023-03-16T15:38:45.664Z,97980.25
2023-03-16T15:41:12.146Z,97973.47
2023-03-16T15:43:38.600Z,97962.06
2023-03-16T15:46:05.241Z,97956.88
2023-03-16T15:48:32.007Z,97969.78
2023-03-16T15:51:04.235Z,97958.16
2023-03-16T15:53:37.016Z,97970.56
2023-03-16T15:56:05.913Z,97970.91
2023-03-16T15:58:32.551Z,97961.47
2023-03-16T16:00:59.770Z,97951.09
2023-03-16T16:03:26.345Z,97946.72
2023-03-16T16:05:53.060Z,97953.63
2023-03-16T16:08:19.812Z,97945.09
2023-03-16T16:10:46.709Z,97954.44
2023-03-16T16:13:19.971Z,97948.13
2023-03-16T16:15:47.020Z,97941.88
2023-03-16T16:18:26.442Z,97937.41
2023-03-16T16:20:52.969Z,97937.63
2023-03-16T16:23:19.950Z,97938.41
2023-03-16T16:25:46.668Z,97917.69
2023-03-16T16:28:15.090Z,97932.53
2023-03-16T16:30:41.837Z,97920.44
2023-03-16T16:33:28.085Z,97923.88
2023-03-16T16:35:55.611Z,97916.94
2023-03-16T16:38:22.461Z,97908.66
2023-03-16T16:40:49.080Z,97931.44
2023-03-16T16:43:20.282Z,97926.94
2023-03-16T16:45:47.328Z,97925.66
2023-03-16T16:48:31.755Z,97918.72
2023-03-16T16:50:59.669Z,97922.28
2023-03-16T16:53:26.150Z,97925.38
2023-03-16T16:55:53.216Z,97932.75
2023-03-16T16:58:24.632Z,97931.00
2023-03-16T17:00:55.859Z,97936.38
2023-03-16T17:03:27.406Z,97925.16
2023-03-16T17:05:56.929Z,97920.38
2023-03-16T17:08:24.502Z,97919.13
2023-03-16T17:10:51.968Z,97926.97
2023-03-16T17:13:26.511Z,97925.69
2023-03-16T17:15:54.484Z,97928.44
2023-03-16T17:18:21.989Z,97922.13
2023-03-16T17:20:49.517Z,97928.59
2023-03-16T17:23:24.890Z,97923.34
2023-03-16T17:25:52.088Z,97925.50
2023-03-16T17:28:18.586Z,97933.75
2023-03-16T17:30:45.690Z,97934.09
2023-03-16T17:33:13.257Z,97937.75
2023-03-16T17:35:41.224Z,97941.00
2023-03-16T17:38:18.721Z,97943.78
2023-03-16T17:40:46.135Z,97950.94
2023-03-16T17:43:17.260Z,97945.91
2023-03-16T17:45:44.710Z,97943.44
2023-03-16T17:48:13.231Z,97951.41
2023-03-16T17:50:40.547Z,97949.44
2023-03-16T17:53:07.239Z,97958.84
2023-03-16T17:55:33.929Z,97957.00
2023-03-16T17:58:00.498Z,97963.66
2023-03-16T18:00:29.969Z,97953.94
2023-03-16T18:02:59.105Z,97951.34
2023-03-16T18:05:33.136Z,97957.19
2023-03-16T18:08:17.576Z,97956.38
2023-03-16T18:10:44.374Z,97957.34
2023-03-16T18:13:29.803Z,97954.66
2023-03-16T18:15:57.223Z,97954.13
2023-03-16T18:18:27.957Z,97956.09
2023-03-16T18:20:56.397Z,97951.09
2023-03-16T18:23:25.488Z,97944.38
2023-03-16T18:25:52.880Z,97944.38
2023-03-16T18:28:20.498Z,97945.75
2023-03-16T18:30:48.096Z,97952.22
2023-03-16T18:33:23.576Z,97950.28
2023-03-16T18:35:51.609Z,97947.69
2023-03-16T18:38:24.534Z,97947.53
2023-03-16T18:40:51.046Z,97948.50
2023-03-16T18:43:18.119Z,97941.22
2023-03-16T18:45:45.869Z,97951.56
2023-03-16T18:48:37.683Z,97943.13
2023-03-16T18:51:04.403Z,97937.81
2023-03-16T18:53:30.861Z,97950.28
2023-03-16T18:55:57.734Z,97942.31
2023-03-16T18:58:24.837Z,97937.00
2023-03-16T19:00:57.083Z,97942.03
2023-03-16T19:03:33.322Z,97943.78
2023-03-16T19:06:00.425Z,97950.63
2023-03-16T19:08:27.337Z,97955.63
2023-03-16T19:10:59.000Z,97962.75
2023-03-16T19:13:26.115Z,97954.97
2023-03-16T19:15:57.947Z,97967.28
2023-03-16T19:18:26.033Z,97958.22
2023-03-16T19:20:52.510Z,97954.66
2023-03-16T19:23:25.617Z,97950.09
2023-03-16T19:25:52.303Z,97948.00
2023-03-16T19:28:29.556Z,97948.16
2023-03-16T19:30:56.352Z,97954.00
2023-03-16T19:33:25.925Z,97943.66
2023-03-16T19:35:53.972Z,97958.03
2023-03-16T19:38:21.553Z,97952.50
2023-03-16T19:40:49.467Z,97943.59
2023-03-16T19:43:19.532Z,97957.69
2023-03-16T19:45:46.823Z,97946.63
2023-03-16T19:48:15.672Z,97917.97
2023-03-16T19:50:42.226Z,97941.31
2023-03-16T19:53:14.681Z,97929.47
2023-03-16T19:55:41.152Z,97929.66
2023-03-16T19:58:15.208Z,97904.69
2023-03-16T20:00:41.861Z,97906.16
2023-03-16T20:03:09.521Z,97907.97
2023-03-16T20:05:38.533Z,97915.06
2023-03-16T20:08:13.334Z,97910.06
2023-03-16T20:10:39.805Z,97923.84
2023-03-16T20:13:07.548Z,97912.34
2023-03-16T20:15:34.396Z,97924.03
2023-03-16T20:18:00.892Z,97923.38
2023-03-16T20:20:29.002Z,97911.53
2023-03-16T20:22:57.526Z,97912.53
2023-03-16T20:25:24.609Z,97918.38
2023-03-16T20:27:54.717Z,97920.84
2023-03-16T20:30:21.531Z,97912.88
2023-03-16T20:32:48.250Z,97899.97
2023-03-16T20:35:28.620Z,97904.50
2023-03-16T20:37:55.450Z,97906.44
2023-03-16T20:40:22.358Z,97915.69
2023-03-16T20:42:49.088Z,97914.22
2023-03-16T20:45:20.912Z,97912.44
2023-03-16T20:47:47.767Z,97915.47
2023-03-16T20:50:25.095Z,97916.50
2023-03-16T20:52:52.007Z,97912.59
2023-03-16T20:55:20.139Z,97907.75
2023-03-16T20:57:47.606Z,97903.69
2023-03-16T21:00:35.315Z,97890.56
2023-03-16T21:03:04.933Z,97895.44
2023-03-16T21:05:31.697Z,97890.13
2023-03-16T21:07:58.390Z,97885.56
2023-03-16T21:10:25.275Z,97888.00
2023-03-16T21:12:53.627Z,97885.22
2023-03-16T21:15:27.494Z,97881.00
2023-03-16T21:17:55.986Z,97878.59
2023-03-16T21:20:23.223Z,97872.13
2023-03-16T21:22:49.773Z,97871.00
2023-03-16T21:25:20.860Z,97868.06
2023-03-16T21:27:47.367Z,97858.19
2023-03-16T21:30:22.273Z,97851.19
2023-03-16T21:32:51.700Z,97846.97
2023-03-16T21:35:18.339Z,97833.72
2023-03-16T21:37:45.279Z,97833.22
2023-03-16T21:40:19.277Z,97830.91
2023-03-16T21:42:46.652Z,97837.56
2023-03-16T21:45:13.390Z,97829.91
2023-03-16T21:47:39.953Z,97836.06
2023-03-16T21:50:20.925Z,97838.03
2023-03-16T21:52:47.791Z,97827.00
2023-03-16T21:55:29.813Z,97837.69
2023-03-16T21:57:57.077Z,97813.19
2023-03-16T22:00:28.902Z,97811.91
2023-03-16T22:02:57.622Z,97808.53
2023-03-16T22:05:30.118Z,97810.38
2023-03-16T22:07:57.991Z,97816.06
2023-03-16T22:10:27.649Z,97811.97
2023-03-16T22:12:55.268Z,97815.19
2023-03-16T22:15:24.980Z,97819.94
2023-03-16T22:17:54.722Z,97816.78
2023-03-16T22:20:27.002Z,97795.47
2023-03-16T22:22:57.539Z,97795.84
2023-03-16T22:25:25.098Z,97794.56
2023-03-16T22:27:52.179Z,97802.53
2023-03-16T22:30:22.279Z,97795.16
2023-03-16T22:32:54.816Z,97805.72
2023-03-16T22:35:39.632Z,97781.25
2023-03-16T22:38:06.663Z,97772.00
2023-03-16T22:40:37.369Z,97772.84
2023-03-16T22:43:05.589Z,97770.56
2023-03-16T22:45:33.455Z,97772.19
2023-03-16T22:48:02.370Z,97771.38
2023-03-16T22:50:31.300Z,97759.03
2023-03-16T22:52:59.600Z,97774.91
2023-03-16T22:55:32.113Z,97774.28
2023-03-16T22:58:21.869Z,97768.97
2023-03-16T23:00:48.399Z,97765.63
2023-03-16T23:03:19.819Z,97761.38
2023-03-16T23:05:46.558Z,97765.47
2023-03-16T23:08:14.879Z,97768.88
2023-03-16T23:10:41.395Z,97757.88
2023-03-16T23:13:16.059Z,97756.25
2023-03-16T23:15:47.302Z,97760.97
2023-03-16T23:18:18.769Z,97756.13
2023-03-16T23:20:45.379Z,97748.53
2023-03-16T23:23:11.926Z,97747.53
2023-03-16T23:25:38.445Z,97750.28
2023-03-16T23:28:05.148Z,97737.81
2023-03-16T23:30:32.051Z,97748.84
2023-03-16T23:32:58.853Z,97742.22
2023-03-16T23:35:29.925Z,97732.56
2023-03-16T23:37:56.487Z,97728.53
2023-03-16T23:40:24.207Z,97752.00
2023-03-16T23:42:50.835Z,97740.34
2023-03-16T23:45:32.099Z,97749.25
2023-03-16T23:47:59.701Z,97734.41
2023-03-16T23:50:28.616Z,97733.06
2023-03-16T23:52:55.974Z,97734.50
2023-03-16T23:55:22.821Z,97736.78
2023-03-16T23:57:49.362Z,97730.13
